TimeCDT,TemperatureF,Dew PointF,Humidity,Sea Level PressureIn,VisibilityMPH,Wind Direction,Wind SpeedMPH,Gust SpeedMPH,PrecipitationIn,Events,Conditions,WindDirDegrees,DateUTC
12:15 AM,68.4,60.8,77,30.15,10.0,Calm,Calm,-,N/A,,Clear,0,2013-07-15 05:15:00
12:35 AM,67.3,60.1,78,30.15,10.0,Calm,Calm,-,N/A,,Clear,0,2013-07-15 05:35:00
12:55 AM,68.5,60.4,75,30.16,10.0,Calm,Calm,-,N/A,,Clear,0,2013-07-15 05:55:00
1:15 AM,67.8,60.3,77,30.16,10.0,Calm,Calm,-,N/A,,Clear,0,2013-07-15 06:15:00
1:35 AM,67.1,60.3,79,30.16,10.0,Calm,Calm,-,N/A,,Clear,0,2013-07-15 06:35:00
1:55 AM,67.1,60.3,79,30.16,10.0,East,3.5,-,N/A,,Clear,100,2013-07-15 06:55:00
2:15 AM,65.5,59.9,82,30.16,10.0,Calm,Calm,-,N/A,,Clear,0,2013-07-15 07:15:00
2:35 AM,65.1,59.9,83,30.16,10.0,Calm,Calm,-,N/A,,Clear,0,2013-07-15 07:35:00
2:55 AM,64.4,59.7,85,30.17,10.0,Calm,Calm,-,N/A,,Clear,0,2013-07-15 07:55:00
3:15 AM,63.7,59.2,85,30.17,10.0,Calm,Calm,-,N/A,,Clear,0,2013-07-15 08:15:00
3:35 AM,63.0,59.0,87,30.16,10.0,ESE,3.5,-,N/A,,Clear,120,2013-07-15 08:35:00
3:55 AM,63.7,59.0,85,30.16,10.0,Calm,Calm,-,N/A,,Clear,0,2013-07-15 08:55:00
4:15 AM,64.4,59.0,83,30.16,10.0,Calm,Calm,-,N/A,,Clear,0,2013-07-15 09:15:00
4:35 AM,64.0,59.0,84,30.16,10.0,Calm,Calm,-,N/A,,Clear,0,2013-07-15 09:35:00
4:55 AM,62.1,58.1,87,30.16,10.0,Calm,Calm,-,N/A,,Clear,0,2013-07-15 09:55:00
5:15 AM,62.1,58.5,88,30.16,7.0,Calm,Calm,-,N/A,,Clear,0,2013-07-15 10:15:00
5:35 AM,61.5,58.3,89,30.16,7.0,Calm,Calm,-,N/A,,Clear,0,2013-07-15 10:35:00
5:55 AM,60.8,57.7,90,30.17,5.0,Calm,Calm,-,N/A,,Clear,0,2013-07-15 10:55:00
6:15 AM,60.8,57.7,90,30.17,4.0,Calm,Calm,-,N/A,,Clear,0,2013-07-15 11:15:00
6:35 AM,60.1,57.2,90,30.18,3.0,Calm,Calm,-,N/A,,Clear,0,2013-07-15 11:35:00
6:55 AM,61.2,58.3,90,30.18,4.0,Calm,Calm,-,N/A,,Clear,0,2013-07-15 11:55:00
7:15 AM,62.4,59.0,89,30.19,5.0,Calm,Calm,-,N/A,,Clear,0,2013-07-15 12:15:00
7:35 AM,63.7,60.4,89,30.19,4.0,Calm,Calm,-,N/A,,Clear,0,2013-07-15 12:35:00
7:55 AM,66.6,60.6,81,30.19,7.0,Calm,Calm,-,N/A,,Clear,0,2013-07-15 12:55:00
8:15 AM,68.0,61.5,80,30.20,7.0,Calm,Calm,-,N/A,,Clear,0,2013-07-15 13:15:00
8:35 AM,69.8,61.9,76,30.20,7.0,Calm,Calm,-,N/A,,Clear,0,2013-07-15 13:35:00
8:55 AM,72.1,63.0,73,30.20,10.0,East,3.5,-,N/A,,Clear,90,2013-07-15 13:55:00
9:15 AM,75.2,64.0,68,30.20,10.0,East,3.5,-,N/A,,Clear,90,2013-07-15 14:15:00
9:35 AM,77.0,64.6,65,30.21,10.0,ESE,4.6,-,N/A,,Clear,120,2013-07-15 14:35:00
9:55 AM,77.9,65.7,66,30.20,10.0,SSE,3.5,-,N/A,,Clear,150,2013-07-15 14:55:00
10:15 AM,79.7,65.7,62,30.20,10.0,SE,3.5,-,N/A,,Clear,140,2013-07-15 15:15:00
10:35 AM,81.0,66.2,61,30.20,10.0,SSE,4.6,-,N/A,,Clear,150,2013-07-15 15:35:00
10:55 AM,82.4,66.0,57,30.20,10.0,SSE,4.6,-,N/A,,Clear,150,2013-07-15 15:55:00
11:15 AM,83.7,65.3,54,30.19,10.0,ESE,5.8,-,N/A,,Scattered Clouds,110,2013-07-15 16:15:00
11:35 AM,84.4,62.4,47,30.20,10.0,SE,4.6,-,N/A,,Scattered Clouds,140,2013-07-15 16:35:00
11:55 AM,85.3,63.5,48,30.20,10.0,SSE,5.8,-,N/A,,Scattered Clouds,150,2013-07-15 16:55:00
12:15 PM,84.0,63.1,49,30.19,10.0,SE,5.8,-,N/A,,Scattered Clouds,140,2013-07-15 17:15:00
12:35 PM,84.9,62.1,46,30.19,10.0,SE,3.5,-,N/A,,Mostly Cloudy,140,2013-07-15 17:35:00
12:55 PM,85.5,59.7,42,30.18,10.0,ESE,6.9,-,N/A,,Scattered Clouds,110,2013-07-15 17:55:00
1:15 PM,86.9,60.6,41,30.18,10.0,SE,9.2,-,N/A,,Scattered Clouds,130,2013-07-15 18:15:00
1:35 PM,87.8,57.0,35,30.17,10.0,ESE,10.4,16.1,N/A,,Scattered Clouds,120,2013-07-15 18:35:00
1:55 PM,88.2,57.0,35,30.17,10.0,ESE,6.9,17.3,N/A,,Scattered Clouds,120,2013-07-15 18:55:00
2:15 PM,88.5,56.7,34,30.16,10.0,SE,11.5,-,N/A,,Scattered Clouds,140,2013-07-15 19:15:00
2:35 PM,88.7,55.0,32,30.15,10.0,East,8.1,-,N/A,,Scattered Clouds,90,2013-07-15 19:35:00
2:55 PM,88.0,55.0,32,30.15,10.0,SE,10.4,-,N/A,,Scattered Clouds,130,2013-07-15 19:55:00
3:15 PM,87.8,55.8,34,30.15,10.0,SE,8.1,-,N/A,,Scattered Clouds,130,2013-07-15 20:15:00
3:35 PM,88.3,55.6,33,30.14,10.0,ESE,4.6,-,N/A,,Scattered Clouds,120,2013-07-15 20:35:00
3:55 PM,89.1,54.1,30,30.14,10.0,East,6.9,-,N/A,,Scattered Clouds,100,2013-07-15 20:55:00
4:15 PM,89.4,56.3,32,30.13,10.0,SSE,8.1,16.1,N/A,,Scattered Clouds,160,2013-07-15 21:15:00
4:35 PM,89.8,54.5,30,30.13,10.0,SE,6.9,-,N/A,,Scattered Clouds,130,2013-07-15 21:35:00
4:55 PM,88.5,53.8,30,30.13,10.0,ESE,8.1,-,N/A,,Clear,110,2013-07-15 21:55:00
5:15 PM,88.0,54.9,32,30.12,10.0,ESE,10.4,-,N/A,,Clear,120,2013-07-15 22:15:00
5:35 PM,88.3,54.5,31,30.12,10.0,East,5.8,-,N/A,,Scattered Clouds,100,2013-07-15 22:35:00
5:55 PM,89.1,54.7,31,30.12,10.0,East,10.4,-,N/A,,Mostly Cloudy,100,2013-07-15 22:55:00
6:15 PM,88.9,55.9,33,30.12,10.0,ESE,8.1,-,N/A,,Scattered Clouds,120,2013-07-15 23:15:00
6:35 PM,88.7,55.0,32,30.12,10.0,ESE,6.9,-,N/A,,Clear,120,2013-07-15 23:35:00
6:55 PM,87.1,56.3,35,30.12,10.0,ESE,8.1,-,N/A,,Mostly Cloudy,120,2013-07-15 23:55:00
7:15 PM,85.5,58.3,40,30.12,10.0,SE,4.6,-,N/A,,Overcast,140,2013-07-16 00:15:00
7:35 PM,84.6,58.6,41,30.13,10.0,South,6.9,-,N/A,,Overcast,170,2013-07-16 00:35:00
7:55 PM,80.1,63.7,57,30.13,10.0,SW,6.9,-,N/A,,Overcast,230,2013-07-16 00:55:00
8:15 PM,77.9,64.9,64,30.14,10.0,WSW,5.8,-,N/A,,Overcast,240,2013-07-16 01:15:00
8:35 PM,77.0,65.8,68,30.14,10.0,WSW,3.5,-,N/A,,Overcast,250,2013-07-16 01:35:00
8:55 PM,77.0,65.7,68,30.16,10.0,South,13.8,20.7,N/A,,Mostly Cloudy,180,2013-07-16 01:55:00
9:15 PM,77.0,65.8,68,30.16,10.0,SSW,15.0,20.7,N/A,,Overcast,200,2013-07-16 02:15:00
9:35 PM,73.8,66.4,78,30.17,10.0,SSW,8.1,-,N/A,Rain,Light Rain,200,2013-07-16 02:35:00
9:55 PM,73.4,66.6,79,30.17,10.0,SW,3.5,-,N/A,,Overcast,220,2013-07-16 02:55:00
10:35 PM,72.1,66.6,83,30.18,10.0,SW,3.5,-,N/A,,Clear,230,2013-07-16 03:35:00
10:55 PM,72.0,66.6,83,30.19,10.0,Calm,Calm,-,N/A,,Mostly Cloudy,0,2013-07-16 03:55:00
11:15 PM,72.0,66.6,83,30.19,10.0,SSW,3.5,-,N/A,,Overcast,210,2013-07-16 04:15:00
11:35 PM,71.8,66.2,83,30.20,10.0,South,4.6,-,N/A,,Mostly Cloudy,190,2013-07-16 04:35:00
11:55 PM,70.9,65.8,84,30.20,10.0,SSW,3.5,-,N/A,,Scattered Clouds,200,2013-07-16 04:55:00